Time;durP1;ratioP1;P1;durP2;ratioP2;P2;SDS_P1;SDS_P2;PMS_P1;PMS_P2;Temp;Humidity;BMP_temperature;BMP_pressure;BME280_temperature;BME280_humidity;BME280_pressure;Samples;Min_cycle;Max_cycle;Signal;HPM_P1;HPM_P2
2021/11/16 00:00:38;;;;;;;16.10;6.15;;;;;;;4.97;91.26;98176.25;4948133;29;20051;-61
2021/11/16 00:03:05;;;;;;;14.77;5.40;;;;;;;5.06;89.38;98172.47;4963155;28;20486;-62
2021/11/16 00:05:33;;;;;;;13.30;5.35;;;;;;;5.11;89.37;98179.78;4947841;29;20071;-64
2021/11/16 00:08:01;;;;;;;11.63;5.00;;;;;;;5.27;88.23;98178.34;4948245;29;20066;-63
2021/11/16 00:10:28;;;;;;;18.10;6.78;;;;;;;5.11;87.95;98168.81;4947943;29;20086;-62
2021/11/16 00:12:54;;;;;;;17.27;6.18;;;;;;;5.18;89.24;98185.69;4946485;29;20063;-64
2021/11/16 00:15:21;;;;;;;12.10;4.85;;;;;;;5.25;88.25;98202.59;4962603;28;20059;-61
2021/11/16 00:17:48;;;;;;;9.10;4.95;;;;;;;5.32;88.07;98181.00;4948138;29;20435;-62
2021/11/16 00:20:16;;;;;;;13.68;6.05;;;;;;;5.39;88.64;98181.38;4948489;29;20094;-61
2021/11/16 00:22:44;;;;;;;12.98;5.75;;;;;;;5.46;88.25;98181.75;4948729;29;20243;-61
2021/11/16 00:27:42;;;;;;;14.57;6.68;;;;;;;5.45;87.54;98185.66;4948347;28;20074;-61
2021/11/16 00:30:10;;;;;;;11.98;5.47;;;;;;;5.66;86.28;98181.28;4946445;28;20055;-60
2021/11/16 00:32:37;;;;;;;13.13;6.32;;;;;;;5.20;86.46;98151.28;4945374;29;20055;-62
2021/11/16 00:35:05;;;;;;;9.88;5.40;;;;;;;5.61;87.32;98184.97;4947487;29;20063;-61
2021/11/16 00:37:32;;;;;;;13.57;5.22;;;;;;;5.20;87.15;98112.06;4947748;29;20059;-64
2021/11/16 00:40:04;;;;;;;12.93;5.07;;;;;;;5.67;88.21;98171.94;4946280;29;20463;-61
2021/11/16 00:42:31;;;;;;;12.63;5.65;;;;;;;5.40;86.67;98111.56;4947958;29;20059;-61
2021/11/16 00:44:58;;;;;;;12.38;5.75;;;;;;;5.51;86.70;98123.94;4947651;29;20055;-62
2021/11/16 00:47:25;;;;;;;14.45;6.57;;;;;;;5.79;86.50;98167.50;4947674;29;20458;-60
2021/11/16 00:49:51;;;;;;;14.20;6.03;;;;;;;5.87;87.12;98165.97;4947356;28;20051;-62
2021/11/16 00:52:20;;;;;;;12.75;5.57;;;;;;;6.03;86.12;98164.47;4947165;29;20055;-61
2021/11/16 00:54:47;;;;;;;13.52;6.07;;;;;;;6.05;85.28;98167.72;4947223;28;20145;-63
2021/11/16 00:57:13;;;;;;;14.13;6.18;;;;;;;5.90;85.25;98165.34;4947207;28;20542;-61
2021/11/16 00:59:40;;;;;;;12.45;5.97;;;;;;;5.96;85.32;98164.06;4947395;29;20063;-62
2021/11/16 01:02:07;;;;;;;17.08;6.13;;;;;;;5.99;86.81;98164.28;4947375;29;20533;-62
2021/11/16 01:04:34;;;;;;;12.80;5.82;;;;;;;5.54;86.03;98102.16;4946211;29;20143;-64
2021/11/16 01:07:03;;;;;;;12.48;5.85;;;;;;;5.94;85.91;98155.34;4946596;29;20645;-61
2021/11/16 01:09:30;;;;;;;15.63;5.75;;;;;;;6.01;84.38;98150.22;4947095;29;20055;-61
2021/11/16 01:11:57;;;;;;;10.68;5.40;;;;;;;5.86;83.92;98104.66;4944711;29;20142;-62
2021/11/16 01:14:24;;;;;;;25.27;9.63;;;;;;;4.13;82.95;97808.31;4945749;29;20055;-62
2021/11/16 01:16:50;;;;;;;18.05;8.18;;;;;;;6.18;84.75;98172.31;4945204;29;20691;-60
2021/11/16 01:19:17;;;;;;;13.40;6.68;;;;;;;6.12;85.00;98162.56;4947307;29;20057;-62
2021/11/16 01:21:44;;;;;;;16.67;6.78;;;;;;;6.06;85.70;98166.59;4946986;29;20450;-63
2021/11/16 01:24:13;;;;;;;10.13;5.57;;;;;;;6.17;85.65;98154.19;4947355;29;20051;-61
2021/11/16 01:26:43;;;;;;;17.95;7.43;;;;;;;5.63;85.51;98093.94;4946796;29;20116;-63
2021/11/16 01:29:10;;;;;;;15.75;6.15;;;;;;;6.24;86.00;98156.50;4947280;28;20059;-61
2021/11/16 01:31:37;;;;;;;23.77;9.18;;;;;;;5.78;85.13;98123.81;4946761;29;20057;-61
2021/11/16 01:34:07;;;;;;;15.23;6.88;;;;;;;6.21;86.19;98160.72;4947262;29;20051;-60
2021/11/16 01:36:34;;;;;;;12.05;5.85;;;;;;;6.33;85.47;98158.16;4945271;28;20063;-61
2021/11/16 01:39:02;;;;;;;10.95;5.20;;;;;;;6.36;84.71;98157.53;4946144;29;20050;-60
2021/11/16 01:41:31;;;;;;;15.25;7.18;;;;;;;6.29;86.09;98159.13;4946569;28;20059;-61
2021/11/16 01:44:00;;;;;;;18.83;7.65;;;;;;;6.13;86.83;98155.97;4946758;28;20059;-61
2021/11/16 01:46:26;;;;;;;14.68;7.05;;;;;;;6.18;87.86;98161.31;4946194;29;20055;-64
2021/11/16 01:48:55;;;;;;;15.35;6.43;;;;;;;6.24;87.13;98154.56;4945280;29;20057;-61
2021/11/16 01:51:26;;;;;;;14.27;6.60;;;;;;;6.13;86.64;98131.22;4944574;29;20053;-60
2021/11/16 01:54:01;;;;;;;10.77;5.32;;;;;;;6.18;86.99;98148.38;4946699;28;20055;-61
2021/11/16 01:56:31;;;;;;;10.65;4.68;;;;;;;6.23;86.90;98158.44;4946220;29;20549;-60
2021/11/16 01:58:59;;;;;;;13.45;6.65;;;;;;;6.31;86.29;98149.41;4945252;29;20072;-63
2021/11/16 02:01:29;;;;;;;17.73;6.75;;;;;;;6.31;86.69;98154.91;4945671;29;20055;-61
2021/11/16 02:03:56;;;;;;;13.00;5.28;;;;;;;6.15;87.88;98150.94;4944956;29;20054;-60
2021/11/16 02:06:29;;;;;;;11.75;5.45;;;;;;;6.29;87.71;98146.19;4945835;28;20058;-61
2021/11/16 02:08:57;;;;;;;16.67;6.45;;;;;;;6.03;87.04;98092.97;4944910;29;20520;-62
2021/11/16 02:11:25;;;;;;;13.73;5.82;;;;;;;6.26;87.75;98151.50;4945637;29;20539;-60
2021/11/16 02:13:52;;;;;;;10.65;5.30;;;;;;;6.32;88.07;98145.56;4946336;29;20047;-61
2021/11/16 02:16:19;;;;;;;15.32;5.80;;;;;;;5.92;87.00;98056.69;4945524;28;20048;-63
2021/11/16 02:18:47;;;;;;;19.15;8.60;;;;;;;5.97;87.00;98055.72;4945285;29;20061;-61
2021/11/16 02:21:15;;;;;;;16.60;7.05;;;;;;;6.62;86.07;98150.22;4960011;28;20537;-60
2021/11/16 02:23:43;;;;;;;17.60;9.07;;;;;;;6.56;86.65;98123.94;4946280;28;20069;-63
2021/11/16 02:26:11;;;;;;;17.20;8.25;;;;;;;6.69;86.41;98125.78;4945641;29;20055;-61
2021/11/16 02:28:43;;;;;;;16.35;8.10;;;;;;;6.72;86.63;98127.09;4944309;28;20057;-60
2021/11/16 02:31:11;;;;;;;14.98;6.90;;;;;;;6.69;86.78;98134.03;4945336;29;20529;-60
2021/11/16 02:33:38;;;;;;;15.73;7.05;;;;;;;6.82;85.97;98127.63;4946300;28;20057;-63
2021/11/16 02:36:06;;;;;;;12.30;5.68;;;;;;;6.79;86.02;98133.75;4944358;29;20070;-62
2021/11/16 02:38:35;;;;;;;16.02;7.30;;;;;;;6.75;86.10;98116.25;4944303;29;20057;-60
2021/11/16 02:41:03;;;;;;;15.60;5.75;;;;;;;6.70;85.56;98119.13;4945418;28;20434;-63
2021/11/16 02:43:31;;;;;;;16.55;6.85;;;;;;;6.91;85.80;98131.19;4945454;29;20074;-63
2021/11/16 02:45:58;;;;;;;18.40;7.10;;;;;;;6.85;85.76;98104.13;4945939;29;20055;-61
2021/11/16 02:48:25;;;;;;;15.60;6.93;;;;;;;6.67;85.40;98097.75;4959918;28;20048;-62
2021/11/16 02:50:57;;;;;;;15.48;5.45;;;;;;;7.11;82.70;98125.06;4945995;29;20338;-61
2021/11/16 02:53:24;;;;;;;14.55;6.10;;;;;;;7.09;82.85;98127.38;4946376;28;20073;-61
2021/11/16 02:55:52;;;;;;;16.25;6.07;;;;;;;5.23;82.94;97809.31;4948857;28;20743;-60
2021/11/16 02:58:20;;;;;;;16.67;5.78;;;;;;;7.10;83.50;98128.97;4948260;28;20059;-61
2021/11/16 03:00:56;;;;;;;16.85;7.18;;;;;;;6.99;83.57;98099.28;4949404;29;20051;-61
2021/11/16 03:03:23;;;;;;;14.50;6.05;;;;;;;6.69;82.81;98051.44;4949570;28;20051;-63
2021/11/16 03:05:50;;;;;;;12.57;6.60;;;;;;;6.96;83.56;98095.25;4949487;29;20054;-60
2021/11/16 03:08:22;;;;;;;11.60;5.20;;;;;;;5.03;83.84;97772.25;4949503;28;20054;-60
2021/11/16 03:10:51;;;;;;;16.63;5.90;;;;;;;6.92;84.82;98127.34;4948975;29;20055;-61
2021/11/16 03:13:18;;;;;;;13.43;5.38;;;;;;;7.00;85.68;98118.25;4949827;28;20059;-61
2021/11/16 03:15:46;;;;;;;10.25;5.35;;;;;;;6.98;86.39;98126.03;4947798;29;20074;-63
2021/11/16 03:18:13;;;;;;;13.45;5.90;;;;;;;6.99;86.49;98126.84;4949109;29;20078;-61
2021/11/16 03:20:40;;;;;;;15.23;5.45;;;;;;;6.98;86.95;98125.22;4949113;28;20054;-60
2021/11/16 03:23:16;;;;;;;14.82;6.30;;;;;;;6.47;87.56;98054.31;4949051;29;20506;-61
2021/11/16 03:25:59;;;;;;;10.80;5.05;;;;;;;7.06;86.89;98133.53;4949090;29;20051;-61
2021/11/16 03:28:29;;;;;;;15.98;7.20;;;;;;;7.11;85.20;98127.84;4949455;28;20062;-61
2021/11/16 03:30:59;;;;;;;15.40;7.00;;;;;;;7.12;85.32;98132.22;4947387;29;20047;-63
2021/11/16 03:33:26;;;;;;;22.15;6.13;;;;;;;6.96;84.59;98089.75;4947356;29;20133;-62
2021/11/16 03:35:54;;;;;;;19.45;6.95;;;;;;;6.96;83.28;98075.97;4948726;29;20142;-64
2021/11/16 03:38:22;;;;;;;13.63;6.43;;;;;;;7.23;82.93;98100.47;4947380;29;20465;-61
2021/11/16 03:40:51;;;;;;;18.33;7.95;;;;;;;7.24;84.20;98124.13;4948644;28;20057;-60
2021/11/16 03:43:19;;;;;;;18.50;7.47;;;;;;;7.34;83.60;98129.34;4947158;29;20059;-60
2021/11/16 03:45:48;;;;;;;27.48;10.98;;;;;;;7.30;83.54;98120.06;4947005;29;20059;-61
2021/11/16 03:48:17;;;;;;;30.55;11.98;;;;;;;7.12;83.57;98098.34;4948643;29;20052;-61
2021/11/16 03:50:44;;;;;;;29.67;12.63;;;;;;;7.31;84.39;98120.91;4948777;29;20074;-60
2021/11/16 03:53:11;;;;;;;48.08;17.30;;;;;;;7.32;84.67;98123.34;4948931;28;20051;-61
2021/11/16 03:55:41;;;;;;;35.30;14.23;;;;;;;7.38;84.09;98122.03;4947340;29;20062;-60
2021/11/16 03:58:11;;;;;;;15.15;6.93;;;;;;;7.38;84.24;98122.03;4946985;29;20047;-62
2021/11/16 04:00:48;;;;;;;36.55;15.05;;;;;;;7.00;84.72;98067.88;4948531;29;20059;-62
2021/11/16 04:03:15;;;;;;;22.52;11.25;;;;;;;7.35;85.12;98125.44;4948400;29;20078;-64
2021/11/16 04:05:43;;;;;;;25.40;10.15;;;;;;;7.42;85.28;98125.78;4948265;28;20558;-60
2021/11/16 04:08:10;;;;;;;19.02;7.28;;;;;;;7.44;85.05;98131.78;4948328;29;20182;-61
2021/11/16 04:10:37;;;;;;;19.15;10.20;;;;;;;7.34;86.07;98140.38;4947696;29;20067;-61
2021/11/16 04:13:04;;;;;;;26.40;12.90;;;;;;;7.39;85.28;98134.69;4948231;29;20063;-64
2021/11/16 04:15:32;;;;;;;18.92;8.90;;;;;;;7.38;85.67;98124.78;4947571;29;20090;-63
2021/11/16 04:18:01;;;;;;;16.90;6.72;;;;;;;7.43;84.88;98137.59;4948280;29;20051;-60
2021/11/16 04:20:34;;;;;;;26.63;9.95;;;;;;;7.36;84.93;98124.31;4948380;29;20066;-61
2021/11/16 04:23:03;;;;;;;19.98;8.13;;;;;;;6.75;85.03;98072.19;4946642;29;20552;-62
2021/11/16 04:25:32;;;;;;;34.10;11.93;;;;;;;7.37;85.86;98111.34;4962931;28;20251;-61
2021/11/16 04:28:00;;;;;;;26.77;10.70;;;;;;;7.36;85.74;98121.56;4947922;28;20078;-61
2021/11/16 04:30:28;;;;;;;39.58;14.73;;;;;;;7.42;85.18;98131.28;4947758;29;20055;-61
2021/11/16 04:32:56;;;;;;;16.63;7.65;;;;;;;7.13;84.88;98056.69;4948236;29;20063;-60
2021/11/16 04:35:25;;;;;;;20.08;8.73;;;;;;;7.46;85.12;98126.75;4947430;29;20055;-61
2021/11/16 04:37:54;;;;;;;15.75;7.70;;;;;;;7.41;85.98;98140.69;4947589;29;20660;-60
2021/11/16 04:40:26;;;;;;;28.60;11.52;;;;;;;7.41;85.87;98135.16;4947766;29;20264;-63
2021/11/16 04:42:56;;;;;;;21.73;9.23;;;;;;;7.47;84.97;98142.16;4947933;28;20061;-61
2021/11/16 04:45:24;;;;;;;21.83;8.65;;;;;;;7.49;84.62;98139.88;4947459;29;20609;-61
2021/11/16 05:03:52;;;;;;;15.27;7.75;;;;;;;7.45;86.71;98144.44;4947608;28;20066;-62
2021/11/16 05:06:24;;;;;;;18.25;9.27;;;;;;;7.42;86.84;98142.31;4947593;28;20059;-61
2021/11/16 05:08:51;;;;;;;16.85;7.78;;;;;;;7.37;87.20;98128.69;4945841;29;20054;-61
2021/11/16 05:11:20;;;;;;;12.77;7.50;;;;;;;6.80;86.90;98030.75;4945525;29;20055;-61
2021/11/16 05:13:48;;;;;;;19.77;9.57;;;;;;;7.57;86.85;98143.78;4946706;29;20065;-60
2021/11/16 05:16:19;;;;;;;26.13;11.27;;;;;;;7.33;87.03;98108.41;4946804;28;20081;-62
2021/11/16 05:18:46;;;;;;;29.08;15.35;;;;;;;5.88;87.09;97895.41;4946889;28;20055;-63
2021/11/16 05:21:15;;;;;;;36.10;16.92;;;;;;;7.27;88.97;98151.03;4947124;29;20055;-60
2021/11/16 05:23:55;;;;;;;48.38;25.33;;;;;;;7.28;88.82;98144.41;4947420;29;20211;-60
2021/11/16 05:26:23;;;;;;;32.13;16.83;;;;;;;7.31;89.52;98148.47;4947605;28;20529;-60
2021/11/16 05:28:51;;;;;;;36.05;17.85;;;;;;;7.17;89.98;98137.59;4946684;29;20061;-60
2021/11/16 05:31:18;;;;;;;44.55;20.50;;;;;;;7.34;90.37;98162.41;4946717;29;20055;-63
2021/11/16 05:33:47;;;;;;;40.33;17.95;;;;;;;7.15;91.77;98141.78;4946676;28;20051;-61
2021/11/16 05:36:18;;;;;;;29.33;13.63;;;;;;;7.21;92.81;98162.53;4946601;29;20148;-60
2021/11/16 05:38:48;;;;;;;22.48;11.82;;;;;;;7.23;93.33;98163.84;4946572;29;20503;-61
2021/11/16 05:41:17;;;;;;;18.02;9.80;;;;;;;7.27;94.05;98159.31;4946272;29;20532;-61
2021/11/16 05:43:45;;;;;;;21.00;8.98;;;;;;;7.19;95.47;98165.59;4946102;29;20047;-62
2021/11/16 05:46:15;;;;;;;20.23;9.30;;;;;;;7.29;95.22;98165.31;4946851;28;20604;-60
2021/11/16 05:48:42;;;;;;;21.98;9.50;;;;;;;7.34;94.04;98148.63;4936927;29;20063;-61
2021/11/16 05:51:10;;;;;;;26.42;11.98;;;;;;;7.45;92.43;98163.72;4927090;29;20452;-64
2021/11/16 05:53:40;;;;;;;27.33;14.80;;;;;;;7.35;93.39;98147.50;4927425;29;20669;-62
2021/11/16 05:56:07;;;;;;;19.50;10.55;;;;;;;7.37;92.15;98244.47;4927143;29;20074;-63
2021/11/16 05:58:33;;;;;;;11.60;6.70;;;;;;;7.04;91.17;98160.56;4927157;29;20052;-62
2021/11/16 06:01:00;;;;;;;13.13;7.03;;;;;;;4.46;91.19;97768.56;4929643;28;20055;-62
2021/11/16 06:03:27;;;;;;;13.63;7.32;;;;;;;6.85;91.97;98154.50;4945017;29;20138;-62
2021/11/16 06:05:54;;;;;;;12.80;5.65;;;;;;;6.93;93.56;98156.50;4946277;29;20062;-63
2021/11/16 06:08:23;;;;;;;15.50;6.68;;;;;;;6.87;93.14;98163.28;4946414;29;20502;-63
2021/11/16 06:10:50;;;;;;;12.73;6.32;;;;;;;6.30;93.44;98092.78;4945349;29;20525;-61
2021/11/16 06:13:17;;;;;;;13.10;7.07;;;;;;;6.80;94.45;98165.66;4946005;29;20436;-61
2021/11/16 06:15:44;;;;;;;15.32;6.57;;;;;;;6.55;95.02;98177.38;4945261;28;20057;-61
2021/11/16 06:18:12;;;;;;;12.27;6.57;;;;;;;6.87;96.06;98176.22;4944357;29;20050;-62
2021/11/16 06:20:41;;;;;;;12.65;6.80;;;;;;;7.00;94.81;98178.84;4945781;29;20055;-61
2021/11/16 06:23:11;;;;;;;15.25;7.72;;;;;;;7.08;93.02;98164.28;4946167;28;20525;-61
2021/11/16 06:25:41;;;;;;;13.70;6.88;;;;;;;6.56;93.95;98082.66;4945806;29;20530;-61
2021/11/16 06:28:08;;;;;;;15.20;8.48;;;;;;;7.09;94.32;98187.16;4946057;28;20069;-61
2021/11/16 06:30:35;;;;;;;23.65;10.77;;;;;;;6.84;95.57;98128.13;4944622;29;20057;-61
2021/11/16 06:33:02;;;;;;;48.15;22.85;;;;;;;7.32;94.74;98164.66;4943921;29;20051;-63
2021/11/16 06:35:29;;;;;;;39.45;20.08;;;;;;;6.61;94.56;98043.19;4945207;29;20486;-62
2021/11/16 06:37:57;;;;;;;43.13;22.00;;;;;;;7.17;95.05;98129.31;4944263;29;20065;-62
2021/11/16 06:40:26;;;;;;;44.35;20.10;;;;;;;7.56;94.76;98180.75;4945584;28;20053;-62
2021/11/16 06:42:53;;;;;;;37.33;18.02;;;;;;;7.64;94.26;98172.50;4945850;29;20059;-61
2021/11/16 06:45:20;;;;;;;38.22;19.08;;;;;;;7.37;94.08;98103.88;4960010;28;20055;-61
2021/11/16 06:47:47;;;;;;;43.83;18.80;;;;;;;7.83;93.70;98176.88;4944196;29;20047;-62
2021/11/16 06:50:14;;;;;;;43.08;19.20;;;;;;;7.88;93.45;98157.41;4945134;29;20134;-61
2021/11/16 06:52:41;;;;;;;45.15;18.45;;;;;;;7.94;94.04;98158.84;4944185;29;20059;-62
2021/11/16 06:55:09;;;;;;;38.72;18.55;;;;;;;8.03;93.99;98157.69;4943778;29;20047;-61
2021/11/16 06:57:36;;;;;;;29.75;16.85;;;;;;;7.77;93.99;98103.69;4945291;29;20059;-62
2021/11/16 07:00:06;;;;;;;48.35;22.88;;;;;;;8.00;93.39;98146.53;4945184;29;20055;-64
2021/11/16 07:02:34;;;;;;;27.15;13.38;;;;;;;7.55;94.27;98064.16;4941442;29;20624;-65
2021/11/16 07:05:11;;;;;;;20.25;11.90;;;;;;;7.35;93.49;97998.66;4938371;29;20522;-66
2021/11/16 07:07:45;;;;;;;27.67;12.05;;;;;;;7.86;92.83;98096.22;4932993;28;20055;-63
2021/11/16 07:10:17;;;;;;;21.30;11.07;;;;;;;8.36;92.97;98160.78;4940366;29;20093;-65
2021/11/16 07:12:44;;;;;;;24.73;13.48;;;;;;;7.35;94.03;98026.22;4944715;28;21380;-63
2021/11/16 07:15:11;;;;;;;20.48;11.73;;;;;;;7.80;93.44;98058.91;4944727;28;20438;-62
2021/11/16 07:17:38;;;;;;;17.33;10.65;;;;;;;8.50;91.44;98150.34;4942514;29;20517;-61
2021/11/16 07:20:07;;;;;;;23.95;14.90;;;;;;;8.02;90.52;98083.53;4944563;29;20051;-61
2021/11/16 07:22:36;;;;;;;39.47;17.80;;;;;;;7.40;91.15;97970.94;4932210;29;20382;-64
2021/11/16 07:25:08;;;;;;;66.57;29.88;;;;;;;8.60;91.21;98147.22;4932053;29;20070;-61
2021/11/16 07:27:45;;;;;;;66.90;28.33;;;;;;;8.59;91.83;98148.34;4929566;29;20102;-67
2021/11/16 07:30:16;;;;;;;55.92;26.77;;;;;;;8.38;92.02;98114.31;4937283;29;20442;-63
2021/11/16 07:32:50;;;;;;;53.45;26.77;;;;;;;8.03;92.12;98008.72;4935842;29;20059;-68
2021/11/16 07:35:21;;;;;;;42.35;22.35;;;;;;;8.87;90.91;98139.28;4944812;28;20051;-68
2021/11/16 07:37:48;;;;;;;40.03;20.23;;;;;;;8.17;89.78;97994.72;4938988;29;20054;-67
2021/11/16 07:40:19;;;;;;;42.00;21.10;;;;;;;9.23;88.50;98138.78;4930436;29;20051;-61
2021/11/16 07:42:57;;;;;;;34.95;18.23;;;;;;;9.33;88.20;98132.03;4937979;28;20059;-65
2021/11/16 07:45:27;;;;;;;35.90;19.15;;;;;;;9.42;88.09;98150.19;4940771;28;20059;-62
2021/11/16 07:48:03;;;;;;;40.63;20.98;;;;;;;9.19;85.77;98157.16;4934759;29;20066;-62
2021/11/16 07:50:47;;;;;;;40.08;20.17;;;;;;;8.86;85.72;98089.88;4932207;29;20047;-63
2021/11/16 07:53:33;;;;;;;24.70;12.55;;;;;;;8.50;87.89;98156.69;4929391;29;20064;-60
2021/11/16 07:56:02;;;;;;;26.55;14.93;;;;;;;8.46;90.94;98160.41;4927550;29;20913;-61
2021/11/16 07:58:47;;;;;;;27.52;14.95;;;;;;;7.11;90.21;97918.44;4930952;29;20048;-62
2021/11/16 08:04:21;;;;;;;17.90;10.60;;;;;;;8.23;94.27;98168.09;4931878;29;20047;-61
2021/11/16 08:15:00;;;;;;;14.63;8.48;;;;;;;8.74;88.33;98150.56;4940363;28;20055;-62
2021/11/16 08:17:29;;;;;;;18.05;9.57;;;;;;;7.33;88.20;97901.72;4937126;29;20541;-66
2021/11/16 08:19:57;;;;;;;18.83;9.52;;;;;;;8.55;88.11;98070.06;4936467;29;20056;-61
2021/11/16 08:22:25;;;;;;;16.85;9.23;;;;;;;6.63;84.93;97780.22;4927764;29;20577;-60
2021/11/16 08:24:55;;;;;;;15.82;8.20;;;;;;;9.20;84.51;98156.00;4933427;29;20046;-65
2021/11/16 08:27:26;;;;;;;17.33;9.55;;;;;;;9.10;84.87;98115.75;4937647;29;20482;-59
2021/11/16 08:30:16;;;;;;;52.00;26.55;;;;;;;9.48;84.19;98148.03;4939544;29;20047;-70
2021/11/16 08:32:45;;;;;;;37.80;19.65;;;;;;;9.43;84.63;98140.75;4927734;29;20450;-62
2021/11/16 08:35:13;;;;;;;24.17;12.25;;;;;;;9.75;83.05;98164.94;4935316;29;20047;-59
2021/11/16 08:37:43;;;;;;;21.92;11.02;;;;;;;9.50;82.81;98099.53;4935715;28;20534;-62
2021/11/16 08:40:18;;;;;;;19.83;10.60;;;;;;;9.96;82.70;98154.63;4940912;29;20050;-60
2021/11/16 08:42:56;;;;;;;27.67;11.57;;;;;;;9.47;82.21;98057.94;4930968;29;20054;-61
2021/11/16 08:45:33;;;;;;;25.15;12.50;;;;;;;10.30;81.88;98159.91;4926701;29;20074;-67
2021/11/16 08:48:11;;;;;;;22.80;12.23;;;;;;;10.43;80.80;98164.28;4926003;29;20056;-60
2021/11/16 08:50:48;;;;;;;23.45;11.50;;;;;;;10.05;80.10;98097.22;4929376;29;20051;-68
2021/11/16 08:53:26;;;;;;;35.42;14.98;;;;;;;10.39;79.42;98129.31;4955870;28;20159;-61
2021/11/16 08:55:54;;;;;;;18.92;9.93;;;;;;;10.67;77.18;98161.59;4942653;29;20059;-67
2021/11/16 08:58:25;;;;;;;17.02;8.02;;;;;;;9.56;76.17;97968.19;4936483;28;20055;-62
2021/11/16 09:00:56;;;;;;;13.63;8.07;;;;;;;10.98;74.89;98157.47;4932119;29;20069;-61
2021/11/16 09:03:28;;;;;;;11.13;6.47;;;;;;;11.31;72.18;98160.94;4934378;29;20055;-62
2021/11/16 09:05:58;;;;;;;14.63;7.30;;;;;;;10.34;71.62;98005.72;4933058;29;20476;-63
2021/11/16 09:08:32;;;;;;;16.17;8.25;;;;;;;11.05;69.35;98074.53;4946766;29;20435;-60
2021/11/16 09:11:09;;;;;;;13.90;7.30;;;;;;;10.80;68.85;98006.38;4935351;29;20549;-69
2021/11/16 09:13:36;;;;;;;12.70;6.72;;;;;;;11.38;68.64;98100.13;4934165;29;20520;-67
2021/11/16 09:16:06;;;;;;;15.07;7.35;;;;;;;11.92;67.66;98143.03;4942394;28;20051;-65
2021/11/16 09:18:39;;;;;;;14.77;6.78;;;;;;;12.16;66.78;98140.97;4944062;29;20137;-65
2021/11/16 09:21:10;;;;;;;16.57;7.60;;;;;;;12.24;65.87;98122.53;4936894;28;20070;-62
2021/11/16 09:23:46;;;;;;;13.85;6.85;;;;;;;12.38;65.52;98139.59;4927760;29;20318;-63
2021/11/16 09:26:32;;;;;;;13.43;7.47;;;;;;;12.48;65.19;98139.09;4953354;28;20514;-66
2021/11/16 09:28:59;;;;;;;11.90;6.35;;;;;;;12.60;63.67;98139.00;4966307;28;20094;-67
2021/11/16 09:31:33;;;;;;;10.20;6.22;;;;;;;12.26;62.62;98131.31;4942649;28;20132;-64
2021/11/16 09:34:04;;;;;;;17.08;6.97;;;;;;;12.80;62.67;98137.97;4945517;28;20134;-63
2021/11/16 09:36:37;;;;;;;13.30;7.47;;;;;;;12.91;63.01;98125.13;4960730;28;20058;-66
2021/11/16 09:39:11;;;;;;;17.35;8.77;;;;;;;12.18;62.49;98035.88;4946439;29;20062;-64
2021/11/16 09:41:42;;;;;;;;;;;;;;;12.97;61.53;98120.91;4947342;28;20137;-63
2021/11/16 09:44:14;;;;;;;12.90;8.20;;;;;;;12.88;61.48;98141.72;4944662;29;19949;-69
2021/11/16 09:47:02;;;;;;;13.48;7.38;;;;;;;12.52;61.54;98062.16;4946148;28;20059;-65
2021/11/16 09:49:48;;;;;;;13.38;7.90;;;;;;;12.93;60.39;98094.97;4946034;29;20114;-65
2021/11/16 09:52:29;;;;;;;10.40;6.05;;;;;;;12.44;60.39;97999.22;4946158;28;20081;-62
2021/11/16 09:55:12;;;;;;;13.55;6.00;;;;;;;13.12;58.91;98058.91;4946100;29;20059;-64
2021/11/16 09:57:42;;;;;;;11.97;7.20;;;;;;;13.43;58.16;98091.44;4940767;28;20055;-64
2021/11/16 10:00:27;;;;;;;11.40;6.30;;;;;;;13.48;59.00;98094.72;4925268;29;20158;-64
2021/11/16 10:03:05;;;;;;;11.57;5.72;;;;;;;13.48;58.11;98091.94;4929109;28;20118;-67
2021/11/16 10:05:43;;;;;;;7.57;4.55;;;;;;;13.45;55.94;98100.22;4945551;29;20062;-70
2021/11/16 10:08:11;;;;;;;10.77;5.35;;;;;;;13.24;56.47;98064.38;4945931;29;20062;-64
2021/11/16 10:10:41;;;;;;;7.90;4.90;;;;;;;13.36;55.77;98053.09;4946345;29;20163;-64
2021/11/16 10:13:11;;;;;;;6.32;4.40;;;;;;;13.59;56.35;98084.63;4945513;29;20047;-63
2021/11/16 10:15:49;;;;;;;6.72;4.80;;;;;;;13.39;57.16;98040.44;4945749;28;20059;-64
2021/11/16 10:18:18;;;;;;;7.80;5.50;;;;;;;12.71;56.93;97906.56;4944292;29;20059;-62
2021/11/16 10:20:47;;;;;;;12.30;5.50;;;;;;;13.61;57.66;98076.72;4945816;29;20097;-64
2021/11/16 10:23:28;;;;;;;9.30;5.20;;;;;;;13.60;58.12;98077.09;4945458;29;20511;-67
2021/11/16 10:25:56;;;;;;;9.70;5.53;;;;;;;11.84;60.30;97925.47;4945805;29;20070;-67
2021/11/16 10:28:23;;;;;;;9.88;5.47;;;;;;;12.01;60.71;97929.88;4945890;29;20050;-60
2021/11/16 10:30:50;;;;;;;12.23;5.20;;;;;;;12.01;62.83;98029.84;4960756;28;20143;-60
2021/11/16 10:33:21;;;;;;;11.18;6.00;;;;;;;12.36;63.09;98025.22;4945467;29;20058;-67
2021/11/16 10:36:01;;;;;;;9.65;5.93;;;;;;;12.68;62.47;98054.63;4945286;28;20510;-66
2021/11/16 10:38:50;;;;;;;9.65;5.25;;;;;;;12.00;63.96;98040.13;4959308;28;20055;-66
2021/11/16 10:41:20;;;;;;;11.30;6.13;;;;;;;11.91;63.68;97924.84;4945065;29;20138;-67
2021/11/16 10:43:54;;;;;;;10.63;6.38;;;;;;;12.54;62.21;97987.56;4944990;29;20139;-66
2021/11/16 10:46:24;;;;;;;11.45;7.28;;;;;;;10.85;61.92;97717.91;4945386;29;20061;-67
2021/11/16 10:48:56;;;;;;;14.38;6.70;;;;;;;12.66;61.10;97968.00;4944597;28;20517;-71
2021/11/16 10:51:31;;;;;;;12.90;5.10;;;;;;;13.10;61.44;98043.75;4945432;29;20051;-65
2021/11/16 10:53:59;;;;;;;10.48;5.95;;;;;;;13.01;61.91;98057.84;4944127;29;20485;-61
2021/11/16 10:56:29;;;;;;;14.55;9.15;;;;;;;13.11;61.95;98060.09;4959723;28;20057;-61
2021/11/16 10:59:06;;;;;;;14.27;6.55;;;;;;;12.74;62.30;98042.06;4945019;28;20057;-61
2021/11/16 11:01:46;;;;;;;22.35;9.80;;;;;;;12.68;62.38;97971.22;4944668;28;20051;-61
2021/11/16 11:04:20;;;;;;;15.88;7.90;;;;;;;12.45;63.10;97977.81;4945208;28;20055;-62
2021/11/16 11:06:49;;;;;;;17.92;8.50;;;;;;;12.77;62.64;98030.22;4944082;28;20055;-59
2021/11/16 11:09:22;;;;;;;10.07;5.65;;;;;;;12.53;61.76;97974.84;4938331;29;20467;-63
2021/11/16 11:11:55;;;;;;;13.30;7.85;;;;;;;12.77;61.74;97991.28;4943357;28;20059;-62
2021/11/16 11:14:37;;;;;;;14.05;6.65;;;;;;;13.06;61.28;98003.91;4945327;28;20047;-62
2021/11/16 11:17:08;;;;;;;12.75;6.25;;;;;;;12.97;60.36;97959.59;4947239;28;20636;-62
2021/11/16 11:19:39;;;;;;;16.25;6.70;;;;;;;12.63;61.20;98007.63;4948937;28;20055;-60
2021/11/16 11:24:48;;;;;;;14.10;6.90;;;;;;;12.50;61.76;98008.91;4948446;28;20054;-68
2021/11/16 11:27:29;;;;;;;15.30;7.63;;;;;;;12.37;61.91;97959.34;4947205;29;20065;-67
2021/11/16 11:30:01;;;;;;;15.75;8.32;;;;;;;12.74;62.73;98025.38;4947046;29;20081;-62
2021/11/16 11:32:34;;;;;;;16.08;7.75;;;;;;;12.44;62.39;97992.88;4948362;28;20070;-63
2021/11/16 11:35:13;;;;;;;16.00;8.20;;;;;;;12.78;62.89;98012.38;4948827;28;20062;-62
2021/11/16 11:37:41;;;;;;;36.60;19.55;;;;;;;13.03;62.63;98027.69;4948598;28;20138;-63
2021/11/16 11:40:10;;;;;;;15.55;8.52;;;;;;;13.06;62.09;98018.63;4948052;28;20055;-64
2021/11/16 11:42:49;;;;;;;22.70;8.68;;;;;;;10.81;61.46;97648.56;4948494;28;20051;-64
2021/11/16 11:47:50;;;;;;;18.05;8.23;;;;;;;12.94;60.85;98002.03;4948514;28;20446;-62
2021/11/16 11:50:25;;;;;;;31.42;10.25;;;;;;;12.87;61.07;98003.81;4948208;28;20047;-63
2021/11/16 11:52:54;;;;;;;24.65;11.77;;;;;;;12.73;61.88;97998.75;4948068;28;20162;-61
2021/11/16 11:55:21;;;;;;;29.02;11.30;;;;;;;12.55;62.99;98016.97;4948218;28;20051;-69
2021/11/16 11:57:48;;;;;;;28.45;13.05;;;;;;;11.42;63.67;97829.16;4948222;28;20142;-65
2021/11/16 12:00:19;;;;;;;26.58;12.20;;;;;;;12.03;63.68;97919.19;4946702;29;20118;-68
2021/11/16 12:02:48;;;;;;;26.35;9.88;;;;;;;12.07;63.52;97923.69;4947643;28;20055;-66
2021/11/16 12:05:15;;;;;;;16.02;7.20;;;;;;;12.43;63.50;97975.38;4947633;28;20062;-66
2021/11/16 12:07:41;;;;;;;12.10;7.82;;;;;;;12.60;63.76;98002.78;4947508;29;20826;-59
2021/11/16 12:10:08;;;;;;;13.80;7.55;;;;;;;12.66;62.15;98006.91;4947459;29;20059;-68
2021/11/16 12:12:38;;;;;;;14.45;6.80;;;;;;;12.83;61.96;97978.75;4947507;29;20781;-60
2021/11/16 12:15:04;;;;;;;13.30;6.80;;;;;;;13.23;60.89;97982.03;4947360;29;20059;-63
2021/11/16 12:17:38;;;;;;;15.82;8.27;;;;;;;13.46;60.02;97994.09;4945615;29;20070;-66